Hakuhomaru — JJ4011 — position and weather

sailwx.info

Track history (hours):
 
Tides and Currents Weather Stations Pressure Air Temp Water Temp Dewpoint Dewpoint Depression Visibility Wind Speed Wind Dir Waves Ship Positions

Hakuhomaru

Last reported at 2015-May-22 15:33 UTC. Time now 2015-May-24 23:22 UTC.
Position N 34°41' E 135°12'.

Length 38 m; draft 3.3 m.

Type: Tug. MMSI: 431401584.

Date/timePositionNaut miles runAvg speedWind from/ knotsBaromVisibWave heightAir tempDewpointWater temp
2015-May-22 15:33N 34°41' E 135°12'2 1.8
2015-May-22 14:33N 34°40' E 135°14'2 1.8
2015-May-22 13:33N 34°41' E 135°12'0 0.0
2015-May-22 12:33N 34°41' E 135°12'0 0.0
2015-May-22 11:33N 34°41' E 135°12'0 0.0
2015-May-22 10:33N 34°41' E 135°12'0 0.2
2015-May-22 09:33N 34°40' E 135°12'5 4.5
2015-May-22 08:33N 34°42' E 135°17'0 0.1
2015-May-22 07:33N 34°42' E 135°17'0 0.5
2015-May-22 06:33N 34°42' E 135°17'2 1.5
2015-May-22 05:33N 34°42' E 135°15'1 1.0
2015-May-22 04:33N 34°41' E 135°14'2 1.6
2015-May-22 03:33N 34°41' E 135°12'0 0.0
2015-May-22 02:33N 34°41' E 135°12'0 0.0
2015-May-22 01:33N 34°41' E 135°12'0 0.0
2015-May-22 00:33N 34°41' E 135°12'0 0.0
2015-May-21 23:33N 34°41' E 135°12'2 2.1
2015-May-21 22:33N 34°41' E 135°15'2 2.2
2015-May-21 21:33N 34°41' E 135°12'0 0.0
2015-May-21 10:22N 34°41' E 135°12'2 2.0
2015-May-21 09:33N 34°40' E 135°14'2 1.6
2015-May-21 08:33N 34°41' E 135°14'0 0.0
2015-May-21 07:33N 34°41' E 135°14'0 0.0
2015-May-21 06:33N 34°41' E 135°14'1 0.9
2015-May-21 05:33N 34°42' E 135°15'1 1.3
2015-May-21 04:33N 34°41' E 135°13'1 0.8
2015-May-21 03:33N 34°41' E 135°14'0 0.0
2015-May-21 02:33N 34°41' E 135°14'1 0.8
2015-May-21 01:33N 34°42' E 135°15'2 2.0
2015-May-21 00:33N 34°40' E 135°15'1 0.5
2015-May-20 23:33N 34°40' E 135°15'2 2.3
2015-May-20 22:33N 34°41' E 135°17'2 1.7
2015-May-20 21:33N 34°40' E 135°15'3 2.5
2015-May-20 20:33N 34°41' E 135°12'0 0.0
2015-May-20 10:33N 34°41' E 135°12'2 2.2
2015-May-20 09:33N 34°40' E 135°15'1 0.7
2015-May-20 08:33N 34°39' E 135°15'0 0.0
2015-May-20 07:33N 34°39' E 135°15'0 0.0
2015-May-20 06:33N 34°39' E 135°15'0 0.0
2015-May-20 05:33N 34°39' E 135°15'2 1.7
2015-May-20 04:33N 34°40' E 135°13'0 0.0
2015-May-20 03:33N 34°40' E 135°13'0 0.0
2015-May-20 02:33N 34°40' E 135°13'2 2.3
2015-May-20 01:33N 34°41' E 135°16'3 2.7
2015-May-20 00:33N 34°41' E 135°13'0 0.0
2015-May-19 23:34N 34°41' E 135°13'3 3.0
2015-May-19 22:32N 34°39' E 135°15'2 1.9
2015-May-19 21:33N 34°39' E 135°13'2 2.1
2015-May-19 20:33N 34°41' E 135°12'0 0.0
2015-May-17 23:33N 34°41' E 135°12'3 3.2
2015-May-17 22:33N 34°42' E 135°16'2 2.0
2015-May-17 21:33N 34°41' E 135°14'1 1.5
2015-May-17 20:33N 34°41' E 135°12'0 0.0
2015-May-17 19:33N 34°41' E 135°12'0 0.0
2015-May-17 18:33N 34°41' E 135°12'0 0.0
2015-May-17 17:33N 34°41' E 135°12'0 0.0
2015-May-17 16:33N 34°41' E 135°12'4 3.9
2015-May-17 15:33N 34°41' E 135°17'1 1.2
2015-May-17 14:33N 34°41' E 135°16'1 1.2
2015-May-17 13:33N 34°42' E 135°17'0 0.0
2015-May-17 12:33N 34°42' E 135°17'0 0.0
2015-May-17 11:33N 34°42' E 135°17'0 0.0
2015-May-17 10:33N 34°42' E 135°17'1 0.7
2015-May-17 09:33N 34°41' E 135°18'1 0.6
2015-May-17 08:33N 34°42' E 135°17'1 0.7
2015-May-17 07:33N 34°41' E 135°17'0 0.0
2015-May-17 06:33N 34°41' E 135°17'0 0.0
2015-May-17 05:33N 34°41' E 135°17'4 4.2
2015-May-17 04:31N 34°40' E 135°22'2 2.4
2015-May-17 03:33N 34°39' E 135°24'6 6.5
2015-May-17 02:33N 34°41' E 135°16'0 0.0
2015-May-17 01:33N 34°41' E 135°16'0 0.0
2015-May-17 00:33N 34°41' E 135°16'0 0.4
2015-May-16 23:33N 34°41' E 135°16'1 1.2
2015-May-16 22:33N 34°41' E 135°17'3 2.6
2015-May-16 21:33N 34°41' E 135°14'2 1.6
2015-May-16 20:33N 34°41' E 135°12'0 0.0
2015-May-16 07:33N 34°41' E 135°12'5 4.9
2015-May-16 06:33N 34°42' E 135°18'5 4.9
2015-May-16 05:33N 34°41' E 135°12'0 0.0
2015-May-16 04:33N 34°41' E 135°12'0 0.0
2015-May-16 03:33N 34°41' E 135°12'0 0.0
2015-May-16 02:33N 34°41' E 135°12'0 0.0
2015-May-16 01:33N 34°41' E 135°12'3 2.6
2015-May-16 00:33N 34°41' E 135°15'2 2.3
2015-May-15 23:33N 34°41' E 135°13'4 3.8
2015-May-15 22:33N 34°41' E 135°17'2 2.5
2015-May-15 21:33N 34°41' E 135°14'2 1.8
2015-May-15 20:33N 34°41' E 135°12'0 0.0
2015-May-14 03:34N 34°41' E 135°12'4 3.9
2015-May-14 02:33N 34°41' E 135°17'4 3.7
2015-May-14 01:33N 34°41' E 135°13'2 2.4
2015-May-14 00:34N 34°39' E 135°15'0 0.3
2015-May-13 23:33N 34°39' E 135°15'0 0.3
2015-May-13 22:33N 34°39' E 135°15'1 0.9
2015-May-13 21:34N 34°40' E 135°15'2 2.1
2015-May-13 20:33N 34°41' E 135°12'0 0.0
2015-May-12 21:05N 34°41' E 135°12'0 0.6
2015-May-12 20:33N 34°41' E 135°12'1 1.1
2015-May-12 19:33N 34°40' E 135°13'0 0.0
2015-May-12 18:33N 34°40' E 135°13'0 0.0
2015-May-12 17:33N 34°40' E 135°13'0 0.0
2015-May-12 16:33N 34°40' E 135°13'  
Track history (hours):
 
Tides and Currents Weather Stations Pressure Air Temp Water Temp Dewpoint Dewpoint Depression Visibility Wind Speed Wind Dir Waves Ship Positions

Hakuhomaru

Last reported at 2015-May-22 15:33 UTC. Time now 2015-May-24 23:22 UTC.
Position N 34°41' E 135°12'.

Length 38 m; draft 3.3 m.

Type: Tug. MMSI: 431401584.

Date/timePositionNaut miles runAvg speedWind from/ knotsBaromVisibWave heightAir tempDewpointWater temp
2015-May-22 15:33N 34°41' E 135°12'2 1.8
2015-May-22 14:33N 34°40' E 135°14'2 1.8
2015-May-22 13:33N 34°41' E 135°12'0 0.0
2015-May-22 12:33N 34°41' E 135°12'0 0.0
2015-May-22 11:33N 34°41' E 135°12'0 0.0
2015-May-22 10:33N 34°41' E 135°12'0 0.2
2015-May-22 09:33N 34°40' E 135°12'5 4.5
2015-May-22 08:33N 34°42' E 135°17'0 0.1
2015-May-22 07:33N 34°42' E 135°17'0 0.5
2015-May-22 06:33N 34°42' E 135°17'2 1.5
2015-May-22 05:33N 34°42' E 135°15'1 1.0
2015-May-22 04:33N 34°41' E 135°14'2 1.6
2015-May-22 03:33N 34°41' E 135°12'0 0.0
2015-May-22 02:33N 34°41' E 135°12'0 0.0
2015-May-22 01:33N 34°41' E 135°12'0 0.0
2015-May-22 00:33N 34°41' E 135°12'0 0.0
2015-May-21 23:33N 34°41' E 135°12'2 2.1
2015-May-21 22:33N 34°41' E 135°15'2 2.2
2015-May-21 21:33N 34°41' E 135°12'0 0.0
2015-May-21 10:22N 34°41' E 135°12'2 2.0
2015-May-21 09:33N 34°40' E 135°14'2 1.6
2015-May-21 08:33N 34°41' E 135°14'0 0.0
2015-May-21 07:33N 34°41' E 135°14'0 0.0
2015-May-21 06:33N 34°41' E 135°14'1 0.9
2015-May-21 05:33N 34°42' E 135°15'1 1.3
2015-May-21 04:33N 34°41' E 135°13'1 0.8
2015-May-21 03:33N 34°41' E 135°14'0 0.0
2015-May-21 02:33N 34°41' E 135°14'1 0.8
2015-May-21 01:33N 34°42' E 135°15'2 2.0
2015-May-21 00:33N 34°40' E 135°15'1 0.5
2015-May-20 23:33N 34°40' E 135°15'2 2.3
2015-May-20 22:33N 34°41' E 135°17'2 1.7
2015-May-20 21:33N 34°40' E 135°15'3 2.5
2015-May-20 20:33N 34°41' E 135°12'0 0.0
2015-May-20 10:33N 34°41' E 135°12'2 2.2
2015-May-20 09:33N 34°40' E 135°15'1 0.7
2015-May-20 08:33N 34°39' E 135°15'0 0.0
2015-May-20 07:33N 34°39' E 135°15'0 0.0
2015-May-20 06:33N 34°39' E 135°15'0 0.0
2015-May-20 05:33N 34°39' E 135°15'2 1.7
2015-May-20 04:33N 34°40' E 135°13'0 0.0
2015-May-20 03:33N 34°40' E 135°13'0 0.0
2015-May-20 02:33N 34°40' E 135°13'2 2.3
2015-May-20 01:33N 34°41' E 135°16'3 2.7
2015-May-20 00:33N 34°41' E 135°13'0 0.0
2015-May-19 23:34N 34°41' E 135°13'3 3.0
2015-May-19 22:32N 34°39' E 135°15'2 1.9
2015-May-19 21:33N 34°39' E 135°13'2 2.1
2015-May-19 20:33N 34°41' E 135°12'0 0.0
2015-May-17 23:33N 34°41' E 135°12'3 3.2
2015-May-17 22:33N 34°42' E 135°16'2 2.0
2015-May-17 21:33N 34°41' E 135°14'1 1.5
2015-May-17 20:33N 34°41' E 135°12'0 0.0
2015-May-17 19:33N 34°41' E 135°12'0 0.0
2015-May-17 18:33N 34°41' E 135°12'0 0.0
2015-May-17 17:33N 34°41' E 135°12'0 0.0
2015-May-17 16:33N 34°41' E 135°12'4 3.9
2015-May-17 15:33N 34°41' E 135°17'1 1.2
2015-May-17 14:33N 34°41' E 135°16'1 1.2
2015-May-17 13:33N 34°42' E 135°17'0 0.0
2015-May-17 12:33N 34°42' E 135°17'0 0.0
2015-May-17 11:33N 34°42' E 135°17'0 0.0
2015-May-17 10:33N 34°42' E 135°17'1 0.7
2015-May-17 09:33N 34°41' E 135°18'1 0.6
2015-May-17 08:33N 34°42' E 135°17'1 0.7
2015-May-17 07:33N 34°41' E 135°17'0 0.0
2015-May-17 06:33N 34°41' E 135°17'0 0.0
2015-May-17 05:33N 34°41' E 135°17'4 4.2
2015-May-17 04:31N 34°40' E 135°22'2 2.4
2015-May-17 03:33N 34°39' E 135°24'6 6.5
2015-May-17 02:33N 34°41' E 135°16'0 0.0
2015-May-17 01:33N 34°41' E 135°16'0 0.0
2015-May-17 00:33N 34°41' E 135°16'0 0.4
2015-May-16 23:33N 34°41' E 135°16'1 1.2
2015-May-16 22:33N 34°41' E 135°17'3 2.6
2015-May-16 21:33N 34°41' E 135°14'2 1.6
2015-May-16 20:33N 34°41' E 135°12'0 0.0
2015-May-16 07:33N 34°41' E 135°12'5 4.9
2015-May-16 06:33N 34°42' E 135°18'5 4.9
2015-May-16 05:33N 34°41' E 135°12'0 0.0
2015-May-16 04:33N 34°41' E 135°12'0 0.0
2015-May-16 03:33N 34°41' E 135°12'0 0.0
2015-May-16 02:33N 34°41' E 135°12'0 0.0
2015-May-16 01:33N 34°41' E 135°12'3 2.6
2015-May-16 00:33N 34°41' E 135°15'2 2.3
2015-May-15 23:33N 34°41' E 135°13'4 3.8
2015-May-15 22:33N 34°41' E 135°17'2 2.5
2015-May-15 21:33N 34°41' E 135°14'2 1.8
2015-May-15 20:33N 34°41' E 135°12'0 0.0
2015-May-14 03:34N 34°41' E 135°12'4 3.9
2015-May-14 02:33N 34°41' E 135°17'4 3.7
2015-May-14 01:33N 34°41' E 135°13'2 2.4
2015-May-14 00:34N 34°39' E 135°15'0 0.3
2015-May-13 23:33N 34°39' E 135°15'0 0.3
2015-May-13 22:33N 34°39' E 135°15'1 0.9
2015-May-13 21:34N 34°40' E 135°15'2 2.1
2015-May-13 20:33N 34°41' E 135°12'0 0.0
2015-May-12 21:05N 34°41' E 135°12'0 0.6
2015-May-12 20:33N 34°41' E 135°12'1 1.1
2015-May-12 19:33N 34°40' E 135°13'0 0.0
2015-May-12 18:33N 34°40' E 135°13'0 0.0
2015-May-12 17:33N 34°40' E 135°13'0 0.0
2015-May-12 16:33N 34°40' E 135°13'  

Dump ship's entire track history